Time;durP1;ratioP1;P1;durP2;ratioP2;P2;SDS_P1;SDS_P2;PMS_P1;PMS_P2;Temp;Humidity;BMP_temperature;BMP_pressure;BME280_temperature;BME280_humidity;BME280_pressure;Samples;Min_cycle;Max_cycle;Signal;HPM_P1;HPM_P2
2022/02/15 00:00:52;;;;;;;;;;;;;;;5.56;99.48;100280.75;2568549;30;136883;-41
2022/02/15 00:03:20;;;;;;;;;;;;;;;5.61;99.43;100281.03;2566978;30;139204;-41
2022/02/15 00:05:48;;;;;;;;;;;;;;;5.60;99.11;100282.06;2569235;30;137345;-41
2022/02/15 00:08:16;;;;;;;;;;;;;;;5.67;99.00;100279.41;2568698;30;137876;-41
2022/02/15 00:10:45;;;;;;;;;;;;;;;5.65;98.92;100283.34;2568280;30;137336;-40
2022/02/15 00:13:14;;;;;;;;;;;;;;;5.64;98.91;100281.69;2567389;30;138677;-41
2022/02/15 00:15:41;;;;;;;;;;;;;;;5.73;98.55;100288.63;2568568;30;137051;-40
2022/02/15 00:18:10;;;;;;;;;;;;;;;5.61;98.64;100291.84;2568112;30;138240;-41
2022/02/15 00:20:38;;;;;;;;;;;;;;;5.58;98.71;100294.97;2568098;30;137315;-40
2022/02/15 00:23:06;;;;;;;;;;;;;;;5.56;99.12;100297.00;2568839;30;138474;-40
2022/02/15 00:25:33;;;;;;;;;;;;;;;5.47;99.06;100290.88;2568537;30;136926;-40
2022/02/15 00:28:01;;;;;;;;;;;;;;;5.37;99.56;100295.75;2568937;30;138312;-40
2022/02/15 00:30:29;;;;;;;;;;;;;;;5.37;99.71;100300.34;2569357;30;136995;-41
2022/02/15 00:32:57;;;;;;;;;;;;;;;5.28;99.73;100297.72;2569082;30;138289;-41
2022/02/15 00:35:25;;;;;;;;;;;;;;;5.17;100.00;100295.53;2566697;30;138804;-40
2022/02/15 00:37:53;;;;;;;;;;;;;;;5.14;100.00;100298.63;2567649;30;140180;-40
2022/02/15 00:40:24;;;;;;;;;;;;;;;5.07;100.00;100303.13;2568539;30;136782;-41
2022/02/15 00:42:52;;;;;;;;;;;;;;;5.01;100.00;100300.13;2567689;30;139014;-40
2022/02/15 00:45:20;;;;;;;;;;;;;;;4.96;100.00;100305.25;2569398;30;137082;-41
2022/02/15 00:47:48;;;;;;;;;;;;;;;4.87;100.00;100312.63;2567673;30;139114;-40
2022/02/15 00:50:17;;;;;;;;;;;;;;;4.79;100.00;100314.59;2567468;30;137108;-41
2022/02/15 00:52:45;;;;;;;;;;;;;;;4.82;100.00;100314.22;2568944;30;138190;-41
2022/02/15 00:55:13;;;;;;;;;;;;;;;4.84;100.00;100317.59;2567317;30;137078;-40
2022/02/15 00:57:41;;;;;;;;;;;;;;;4.86;100.00;100315.53;2569105;30;138453;-41
2022/02/15 01:00:10;;;;;;;;;;;;;;;4.88;100.00;100308.88;2566696;30;137361;-40
2022/02/15 01:02:38;;;;;;;;;;;;;;;4.84;100.00;100317.59;2567255;30;137507;-40
2022/02/15 01:05:06;;;;;;;;;;;;;;;4.89;100.00;100326.78;2569178;30;136877;-41
2022/02/15 01:07:37;;;;;;;;;;;;;;;4.94;100.00;100322.72;2568402;30;139648;-41
2022/02/15 01:10:06;;;;;;;;;;;;;;;4.90;100.00;100327.63;2568099;30;137865;-40
2022/02/15 01:12:35;;;;;;;;;;;;;;;4.87;100.00;100333.44;2573190;30;138467;-38
2022/02/15 01:15:04;;;;;;;;;;;;;;;4.82;100.00;100330.44;2569218;30;137016;-36
2022/02/15 01:17:32;;;;;;;;;;;;;;;4.85;100.00;100330.06;2567931;30;139949;-36
2022/02/15 01:20:00;;;;;;;;;;;;;;;4.86;100.00;100339.84;2567157;30;137404;-36
2022/02/15 01:22:28;;;;;;;;;;;;;;;4.88;100.00;100338.63;2567680;30;137476;-36
2022/02/15 01:24:56;;;;;;;;;;;;;;;4.91;100.00;100329.31;2568253;30;137073;-36
2022/02/15 01:27:24;;;;;;;;;;;;;;;4.95;100.00;100335.19;2569044;30;137188;-36
2022/02/15 01:29:55;;;;;;;;;;;;;;;5.06;100.00;100342.00;2567583;30;137111;-36
2022/02/15 01:32:27;;;;;;;;;;;;;;;5.02;100.00;100339.63;2566828;30;138327;-36
2022/02/15 01:34:54;;;;;;;;;;;;;;;5.10;100.00;100338.72;2565601;30;139868;-36
2022/02/15 01:37:22;;;;;;;;;;;;;;;5.07;100.00;100336.38;2567281;30;139124;-36
2022/02/15 01:39:50;;;;;;;;;;;;;;;5.09;100.00;100341.63;2568002;30;138042;-37
2022/02/15 01:42:19;;;;;;;;;;;;;;;5.10;100.00;100349.53;2568651;30;139797;-36
2022/02/15 01:44:47;;;;;;;;;;;;;;;5.09;100.00;100341.63;2566521;30;138507;-37
2022/02/15 01:47:26;;;;;;;;;;;;;;;5.08;100.00;100348.06;2568602;30;140494;-36
2022/02/15 01:49:56;;;;;;;;;;;;;;;5.15;100.00;100354.38;2569602;30;136859;-36
2022/02/15 01:52:25;;;;;;;;;;;;;;;5.21;100.00;100352.78;2568693;30;138925;-36
2022/02/15 01:55:00;;;;;;;;;;;;;;;5.13;100.00;100348.31;2570029;30;137605;-36
2022/02/15 01:57:30;;;;;;;;;;;;;;;5.10;100.00;100348.69;2568764;30;139829;-36
2022/02/15 02:00:13;;;;;;;;;;;;;;;5.10;100.00;100346.00;2567089;30;137043;-36
2022/02/15 02:02:48;;;;;;;;;;;;;;;5.13;100.00;100348.31;2567672;30;139717;-37
2022/02/15 02:08:07;;;;;;;;;;;;;;;5.08;100.00;100348.06;2568232;30;138640;-36
2022/02/15 02:10:40;;;;;;;;;;;;;;;5.08;100.00;100345.34;2568525;30;137037;-36
2022/02/15 02:13:16;;;;;;;;;;;;;;;5.11;100.00;100358.50;2566194;30;140321;-36
2022/02/15 02:15:44;;;;;;;;;;;;;;;5.08;100.00;100353.47;2567633;30;137308;-36
2022/02/15 02:18:44;;;;;;;;;;;;;;;5.14;100.00;100358.13;2567807;30;136945;-36
2022/02/15 02:21:15;;;;;;;;;;;;;;;5.09;100.00;100366.78;2568286;30;138164;-36
2022/02/15 02:23:42;;;;;;;;;;;;;;;5.06;100.00;100363.63;2568350;30;139972;-37
2022/02/15 02:26:14;;;;;;;;;;;;;;;5.06;100.00;100369.88;2566620;30;138221;-37
2022/02/15 02:28:43;;;;;;;;;;;;;;;5.08;100.00;100375.91;2567725;30;141155;-36
2022/02/15 02:31:13;;;;;;;;;;;;;;;5.09;100.00;100368.66;2568824;30;138642;-36
2022/02/15 02:33:58;;;;;;;;;;;;;;;5.14;100.00;100379.75;2564428;30;139392;-36
2022/02/15 02:36:26;;;;;;;;;;;;;;;5.15;100.00;100379.53;2567575;30;138409;-36
2022/02/15 02:38:54;;;;;;;;;;;;;;;5.12;100.00;100374.50;2568003;30;138714;-36
2022/02/15 02:41:22;;;;;;;;;;;;;;;5.10;100.00;100384.69;2567123;30;138583;-36
2022/02/15 02:43:51;;;;;;;;;;;;;;;5.22;100.00;100384.22;2568020;30;139358;-36
2022/02/15 02:46:19;;;;;;;;;;;;;;;5.24;100.00;100387.59;2568995;30;136830;-36
2022/02/15 02:48:47;;;;;;;;;;;;;;;5.27;100.00;100392.59;2567513;30;140107;-36
2022/02/15 02:51:15;;;;;;;;;;;;;;;5.22;100.00;100390.47;2568145;30;136779;-36
2022/02/15 02:53:42;;;;;;;;;;;;;;;5.22;100.00;100390.47;2569128;30;139336;-36
2022/02/15 02:56:11;;;;;;;;;;;;;;;5.24;100.00;100393.81;2567525;30;138660;-37
2022/02/15 02:58:40;;;;;;;;;;;;;;;5.28;100.00;100400.50;2567853;30;139514;-36
2022/02/15 03:01:08;;;;;;;;;;;;;;;5.39;100.00;100403.78;2568270;30;136817;-36
2022/02/15 03:03:42;;;;;;;;;;;;;;;5.33;100.00;100403.53;2567019;30;140498;-36
2022/02/15 03:06:11;;;;;;;;;;;;;;;5.35;100.00;100408.72;2566297;30;138149;-36
2022/02/15 03:08:40;;;;;;;;;;;;;;;5.33;100.00;100414.34;2565462;30;139836;-37
2022/02/15 03:11:08;;;;;;;;;;;;;;;5.29;100.00;100412.19;2568774;30;138482;-36
2022/02/15 03:13:39;;;;;;;;;;;;;;;5.29;100.00;100418.44;2568212;30;138106;-36
2022/02/15 03:16:17;;;;;;;;;;;;;;;5.26;100.00;100418.81;2567005;30;138509;-36
2022/02/15 03:18:45;;;;;;;;;;;;;;;5.24;100.00;100420.03;2568781;30;139520;-37
2022/02/15 03:21:13;;;;;;;;;;;;;;;5.27;100.00;100425.88;2569294;30;137920;-36
2022/02/15 03:23:42;;;;;;;;;;;;;;;5.23;100.00;100424.59;2569134;30;138410;-36
2022/02/15 03:26:12;;;;;;;;;;;;;;;5.22;100.00;100428.31;2565273;30;139247;-36
2022/02/15 03:28:41;;;;;;;;;;;;;;;5.18;100.00;100421.63;2567016;30;139986;-36
2022/02/15 03:31:10;;;;;;;;;;;;;;;5.14;100.00;100423.84;2567210;30;138788;-36
2022/02/15 03:33:37;;;;;;;;;;;;;;;5.19;100.00;100428.69;2568333;30;139580;-36
2022/02/15 03:36:05;;;;;;;;;;;;;;;5.21;100.00;100432.06;2568088;30;138494;-36
2022/02/15 03:38:37;;;;;;;;;;;;;;;5.22;100.00;100432.91;2568472;30;139669;-37
2022/02/15 03:44:03;;;;;;;;;;;;;;;5.25;100.00;100432.53;2568651;30;139326;-36
2022/02/15 03:46:33;;;;;;;;;;;;;;;5.22;100.00;100438.31;2568170;30;139270;-36
2022/02/15 03:49:01;;;;;;;;;;;;;;;5.19;100.00;100436.81;2568179;30;139623;-36
2022/02/15 03:51:31;;;;;;;;;;;;;;;5.18;100.00;100438.69;2568412;30;138822;-36
2022/02/15 03:53:59;;;;;;;;;;;;;;;5.20;100.00;100446.59;2566803;30;139719;-36
2022/02/15 03:56:27;;;;;;;;;;;;;;;5.18;100.00;100448.66;2569648;30;139053;-36
2022/02/15 03:58:56;;;;;;;;;;;;;;;5.20;100.00;100460.13;2568703;30;140616;-37
2022/02/15 04:01:25;;;;;;;;;;;;;;;5.12;100.00;100461.06;2567137;30;138859;-37
2022/02/15 04:03:54;;;;;;;;;;;;;;;5.08;100.00;100458.94;2568556;30;140276;-36
2022/02/15 04:06:22;;;;;;;;;;;;;;;4.97;100.00;100462.91;2569378;30;138161;-36
2022/02/15 04:08:50;;;;;;;;;;;;;;;4.89;100.00;100466.53;2568802;30;139780;-37
2022/02/15 04:11:18;;;;;;;;;;;;;;;4.85;100.00;100466.06;2568220;30;139013;-36
2022/02/15 04:13:49;;;;;;;;;;;;;;;4.86;100.00;100466.91;2569528;30;138088;-36
2022/02/15 04:16:17;;;;;;;;;;;;;;;4.83;100.00;100468.09;2567145;30;139407;-36
2022/02/15 04:18:47;;;;;;;;;;;;;;;4.74;100.00;100469.22;2568974;30;139264;-36
2022/02/15 04:21:20;;;;;;;;;;;;;;;4.75;100.00;100479.00;2568398;30;138682;-36
2022/02/15 04:23:48;;;;;;;;;;;;;;;4.72;100.00;100480.19;2567732;30;140686;-37
2022/02/15 04:26:17;;;;;;;;;;;;;;;4.68;100.00;100491.56;2565941;30;138841;-36
2022/02/15 04:28:45;;;;;;;;;;;;;;;4.69;100.00;100493.25;2569146;30;140188;-36
2022/02/15 04:31:23;;;;;;;;;;;;;;;4.64;100.00;100491.09;2567488;30;136976;-36
2022/02/15 04:33:51;;;;;;;;;;;;;;;4.71;100.00;100500.13;2567055;30;139045;-36
2022/02/15 04:36:19;;;;;;;;;;;;;;;4.68;100.00;100503.19;2568866;30;137334;-36
2022/02/15 04:38:52;;;;;;;;;;;;;;;4.71;100.00;100502.84;2568938;30;140879;-36
2022/02/15 04:41:21;;;;;;;;;;;;;;;4.67;100.00;100506.94;2567880;30;136940;-36
2022/02/15 04:43:51;;;;;;;;;;;;;;;4.63;100.00;100502.91;2568243;30;138212;-36
2022/02/15 04:46:26;;;;;;;;;;;;;;;4.60;100.00;100505.97;2565740;30;138429;-36
2022/02/15 04:48:55;;;;;;;;;;;;;;;4.59;100.00;100515.94;2568943;30;139397;-36
2022/02/15 04:51:23;;;;;;;;;;;;;;;4.58;100.00;100527.75;2567360;30;139462;-36
2022/02/15 04:53:52;;;;;;;;;;;;;;;4.58;100.00;100527.75;2568975;30;137391;-36
2022/02/15 04:56:20;;;;;;;;;;;;;;;4.59;100.00;100536.72;2568136;30;138262;-36
2022/02/15 04:58:48;;;;;;;;;;;;;;;4.61;100.00;100535.50;2568062;30;140606;-36
2022/02/15 05:01:16;;;;;;;;;;;;;;;4.66;100.00;100540.38;2568487;30;136943;-37
2022/02/15 05:03:49;;;;;;;;;;;;;;;4.65;100.00;100536.00;2567990;30;139889;-36
2022/02/15 05:06:17;;;;;;;;;;;;;;;4.66;100.00;100537.69;2569152;30;138082;-36
2022/02/15 05:08:46;;;;;;;;;;;;;;;4.64;100.00;100539.72;2567695;30;140576;-36
2022/02/15 05:11:14;;;;;;;;;;;;;;;4.63;100.00;100545.28;2568236;30;138737;-37
2022/02/15 05:13:48;;;;;;;;;;;;;;;4.60;100.00;100543.81;2568060;30;139430;-36
2022/02/15 05:16:20;;;;;;;;;;;;;;;4.68;100.00;100551.84;2568077;30;138411;-36
2022/02/15 05:18:54;;;;;;;;;;;;;;;4.69;100.00;100548.13;2567014;30;139678;-36
2022/02/15 05:21:26;;;;;;;;;;;;;;;4.67;100.00;100547.47;2567353;30;137206;-36
2022/02/15 05:23:58;;;;;;;;;;;;;;;4.65;100.00;100554.09;2567211;30;139255;-36
2022/02/15 05:26:38;;;;;;;;;;;;;;;4.60;100.00;100555.44;2569346;30;137266;-36
2022/02/15 05:29:07;;;;;;;;;;;;;;;4.60;100.00;100551.91;2568522;30;139922;-36
2022/02/15 05:31:42;;;;;;;;;;;;;;;4.50;100.00;100554.84;2568101;30;137738;-36
2022/02/15 05:34:12;;;;;;;;;;;;;;;4.49;100.00;100552.31;2568611;30;137199;-36
2022/02/15 05:36:41;;;;;;;;;;;;;;;4.45;100.00;100555.38;2567632;30;138533;-36
2022/02/15 05:39:11;;;;;;;;;;;;;;;4.43;100.00;100554.72;2568120;30;139264;-36
2022/02/15 05:41:46;;;;;;;;;;;;;;;4.47;100.00;100563.31;2569329;30;138266;-36
2022/02/15 05:44:14;;;;;;;;;;;;;;;4.55;100.00;100565.13;2568322;30;140043;-37
2022/02/15 05:46:42;;;;;;;;;;;;;;;4.54;100.00;100555.34;2566118;30;138306;-36
2022/02/15 05:49:11;;;;;;;;;;;;;;;4.52;100.00;100562.78;2569137;30;140788;-36
2022/02/15 05:51:56;;;;;;;;;;;;;;;4.54;100.00;100556.16;2568082;30;138795;-36
2022/02/15 05:54:27;;;;;;;;;;;;;;;4.53;100.00;100559.06;2567987;30;140584;-36
2022/02/15 05:56:59;;;;;;;;;;;;;;;4.52;100.00;100546.59;2568013;30;138038;-37
2022/02/15 05:59:37;;;;;;;;;;;;;;;4.56;100.00;100551.44;2568046;30;140454;-36
2022/02/15 06:02:21;;;;;;;;;;;;;;;4.53;100.00;100559.06;2567714;30;138736;-36
2022/02/15 06:04:54;;;;;;;;;;;;;;;4.49;100.00;100560.41;2567411;30;139746;-36
2022/02/15 06:07:28;;;;;;;;;;;;;;;4.50;100.00;100568.38;2567918;30;138080;-36
2022/02/15 06:10:08;;;;;;;;;;;;;;;4.50;100.00;100576.47;2568530;30;139572;-37
2022/02/15 06:12:39;;;;;;;;;;;;;;;4.51;100.00;100577.28;2568522;30;139315;-36
2022/02/15 06:15:08;;;;;;;;;;;;;;;4.50;100.00;100570.22;2569069;30;138321;-36
2022/02/15 06:18:08;;;;;;;;;;;;;;;4.55;100.00;100592.16;2568570;30;137030;-36
2022/02/15 06:20:53;;;;;;;;;;;;;;;4.56;100.00;100604.63;2567579;30;139596;-36
2022/02/15 06:23:25;;;;;;;;;;;;;;;4.61;100.00;100602.25;2567988;30;139915;-36
2022/02/15 06:26:00;;;;;;;;;;;;;;;4.57;100.00;100604.44;2569161;30;138383;-36
2022/02/15 06:28:38;;;;;;;;;;;;;;;4.58;100.00;100600.72;2567724;30;138519;-37
2022/02/15 06:31:15;;;;;;;;;;;;;;;4.54;100.00;100601.28;2567850;30;138278;-36
2022/02/15 06:33:42;;;;;;;;;;;;;;;4.61;100.00;100602.25;2567429;30;139078;-36
2022/02/15 06:36:15;;;;;;;;;;;;;;;4.61;100.00;100615.75;2568823;30;138892;-36
2022/02/15 06:38:43;;;;;;;;;;;;;;;4.59;100.00;100613.22;2566593;30;138624;-36
2022/02/15 06:41:15;;;;;;;;;;;;;;;4.56;100.00;100613.56;2568289;30;139819;-36
2022/02/15 06:44:10;;;;;;;;;;;;;;;4.54;100.00;100615.63;2567697;30;139401;-36
2022/02/15 06:46:45;;;;;;;;;;;;;;;4.58;100.00;100616.94;2567055;30;140634;-36
2022/02/15 06:49:25;;;;;;;;;;;;;;;4.58;100.00;100626.91;2568944;30;137910;-36
2022/02/15 06:52:11;;;;;;;;;;;;;;;4.56;100.00;100629.78;2568681;30;136905;-36
2022/02/15 06:54:41;;;;;;;;;;;;;;;4.69;100.00;100631.91;2567593;30;138017;-36
2022/02/15 06:57:09;;;;;;;;;;;;;;;4.66;100.00;100629.56;2567811;30;138152;-36
2022/02/15 06:59:37;;;;;;;;;;;;;;;4.61;100.00;100631.97;2566867;30;139382;-36
2022/02/15 07:02:06;;;;;;;;;;;;;;;4.59;100.00;100632.13;2567350;30;138934;-36
2022/02/15 07:04:38;;;;;;;;;;;;;;;4.54;100.00;100631.81;2567631;30;138206;-36
2022/02/15 07:07:06;;;;;;;;;;;;;;;4.54;100.00;100639.09;2568112;30;137405;-36
2022/02/15 07:09:35;;;;;;;;;;;;;;;4.60;100.00;100651.91;2566739;30;137835;-36
2022/02/15 07:13:25;;;;;;;;;;;;;;;4.58;100.00;100654.78;2566873;30;156062;-41
2022/02/15 07:15:58;;;;;;;;;;;;;;;4.58;100.00;100662.06;2566604;30;137007;-41
2022/02/15 07:18:27;;;;;;;;;;;;;;;4.59;100.00;100663.72;2565600;30;138735;-41
2022/02/15 07:21:18;;;;;;;;;;;;;;;4.59;100.00;100663.72;2566279;30;137186;-41
2022/02/15 07:24:16;;;;;;;;;;;;;;;4.64;100.00;100665.88;2565119;30;138600;-41
2022/02/15 07:27:22;;;;;;;;;;;;;;;4.63;100.00;100675.00;2567955;30;137121;-41
2022/02/15 07:29:53;;;;;;;;;;;;;;;4.66;100.00;100677.38;2567343;30;138547;-41
2022/02/15 07:32:41;;;;;;;;;;;;;;;4.78;100.00;100685.94;2568358;30;137045;-41
2022/02/15 07:35:09;;;;;;;;;;;;;;;4.75;100.00;100679.84;2567786;30;140080;-41
2022/02/15 07:37:37;;;;;;;;;;;;;;;4.75;100.00;100687.94;2568990;30;136844;-41
2022/02/15 07:40:05;;;;;;;;;;;;;;;4.82;100.00;100687.25;2566339;30;138533;-41
2022/02/15 07:42:33;;;;;;;;;;;;;;;4.82;100.00;100684.56;2566480;30;137256;-41
2022/02/15 07:45:05;;;;;;;;;;;;;;;4.81;100.00;100685.56;2566797;30;140620;-41
2022/02/15 07:47:33;;;;;;;;;;;;;;;4.88;100.00;100689.25;2567435;30;137065;-41
2022/02/15 07:50:01;;;;;;;;;;;;;;;4.92;100.00;100685.16;2568642;30;138465;-41
2022/02/15 07:52:29;;;;;;;;;;;;;;;5.01;100.00;100697.59;2567958;30;137116;-41
2022/02/15 07:54:57;;;;;;;;;;;;;;;5.08;100.00;100705.84;2566871;30;137097;-41
2022/02/15 07:57:25;;;;;;;;;;;;;;;5.09;100.00;100704.81;2568453;30;137620;-40
2022/02/15 07:59:53;;;;;;;;;;;;;;;5.18;100.00;100708.31;2567574;30;138201;-41
2022/02/15 08:02:21;;;;;;;;;;;;;;;5.29;100.00;100709.75;2568638;30;137157;-41
2022/02/15 08:04:49;;;;;;;;;;;;;;;5.35;100.00;100719.03;2567422;30;137866;-41
2022/02/15 08:07:17;;;;;;;;;;;;;;;5.41;100.00;100715.59;2568880;30;138220;-41
2022/02/15 08:09:44;;;;;;;;;;;;;;;5.46;100.00;100729.41;2568621;30;136926;-40
2022/02/15 08:12:17;;;;;;;;;;;;;;;5.41;100.00;100723.72;2567925;30;137882;-41
2022/02/15 08:14:46;;;;;;;;;;;;;;;5.44;100.00;100726.06;2568166;30;138434;-41
2022/02/15 08:17:13;;;;;;;;;;;;;;;5.48;100.00;100721.97;2566540;30;138283;-41
2022/02/15 08:19:42;;;;;;;;;;;;;;;5.54;100.00;100734.75;2568941;30;137313;-41
2022/02/15 08:22:10;;;;;;;;;;;;;;;5.56;100.00;100732.72;2568116;30;136791;-41
2022/02/15 08:24:39;;;;;;;;;;;;;;;5.61;100.00;100724.91;2569316;30;139199;-41
2022/02/15 08:27:09;;;;;;;;;;;;;;;5.69;100.00;100734.81;2569376;30;137117;-41
2022/02/15 08:29:39;;;;;;;;;;;;;;;5.74;100.00;100734.25;2568968;30;139012;-41
2022/02/15 08:32:07;;;;;;;;;;;;;;;5.73;100.00;100738.00;2565059;30;137093;-41
2022/02/15 08:34:35;;;;;;;;;;;;;;;5.70;100.00;100736.50;2567500;30;138438;-41
2022/02/15 08:37:03;;;;;;;;;;;;;;;5.71;100.00;100748.16;2567510;30;136949;-41
2022/02/15 08:39:31;;;;;;;;;;;;;;;5.71;100.00;100740.91;2569315;30;138452;-41
2022/02/15 08:42:04;;;;;;;;;;;;;;;5.71;100.00;100756.28;2568877;30;137872;-41
2022/02/15 08:44:34;;;;;;;;;;;;;;;5.76;100.00;100748.47;2568182;30;138330;-41
2022/02/15 08:47:06;;;;;;;;;;;;;;;5.86;100.00;100757.19;2567598;30;137546;-40
2022/02/15 08:49:35;;;;;;;;;;;;;;;5.92;100.00;100749.34;2570220;30;136629;-41
2022/02/15 08:52:04;;;;;;;;;;;;;;;6.01;100.00;100753.69;2568880;30;136931;-41
2022/02/15 08:54:32;;;;;;;;;;;;;;;6.02;100.00;100745.38;2566733;30;136883;-40
2022/02/15 08:57:00;;;;;;;;;;;;;;;6.08;100.00;100749.19;2568310;30;138026;-41
2022/02/15 08:59:28;;;;;;;;;;;;;;;6.14;100.00;100748.50;2568100;30;139108;-41
2022/02/15 09:01:56;;;;;;;;;;;;;;;6.12;100.00;100761.38;2567225;30;138191;-41
2022/02/15 09:04:24;;;;;;;;;;;;;;;6.09;100.00;100769.03;2569415;30;137899;-41
2022/02/15 09:06:54;;;;;;;;;;;;;;;6.06;100.00;100770.22;2566297;30;137251;-41
2022/02/15 09:09:22;;;;;;;;;;;;;;;6.02;100.00;100769.75;2569110;30;139424;-41
2022/02/15 09:11:50;;;;;;;;;;;;;;;6.04;100.00;100774.97;2569133;30;137247;-41
2022/02/15 09:14:18;;;;;;;;;;;;;;;6.05;100.00;100768.53;2569726;30;137297;-41
2022/02/15 09:16:47;;;;;;;;;;;;;;;6.10;100.00;100776.13;2568418;30;137193;-41
2022/02/15 09:19:15;;;;;;;;;;;;;;;6.16;100.00;100780.78;2569580;30;137459;-41
2022/02/15 09:21:43;;;;;;;;;;;;;;;6.12;100.00;100783.06;2568607;30;137100;-41
2022/02/15 09:24:11;;;;;;;;;;;;;;;6.12;100.00;100793.88;2568835;30;138253;-41
2022/02/15 09:26:39;;;;;;;;;;;;;;;6.16;100.00;100787.06;2569525;30;137221;-41
2022/02/15 09:29:08;;;;;;;;;;;;;;;6.12;99.33;100788.47;2567193;30;138472;-41
2022/02/15 09:31:38;;;;;;;;;;;;;;;6.17;100.00;100796.88;2569371;30;137187;-41
2022/02/15 09:34:06;;;;;;;;;;;;;;;6.10;100.00;100800.50;2568107;30;138375;-41
2022/02/15 09:36:35;;;;;;;;;;;;;;;6.07;100.00;100798.97;2568585;30;136767;-41
2022/02/15 09:39:03;;;;;;;;;;;;;;;6.06;100.00;100796.47;2568849;30;138366;-41
2022/02/15 09:41:35;;;;;;;;;;;;;;;6.09;100.00;100805.06;2568041;30;137771;-41
2022/02/15 09:44:04;;;;;;;;;;;;;;;6.10;100.00;100801.34;2566352;30;138365;-41
2022/02/15 09:46:32;;;;;;;;;;;;;;;6.18;100.00;100803.13;2566836;30;137715;-41
2022/02/15 09:49:01;;;;;;;;;;;;;;;6.28;100.00;100800.16;2568587;30;137302;-41
2022/02/15 09:51:29;;;;;;;;;;;;;;;6.31;99.84;100808.75;2567830;30;137375;-41
2022/02/15 09:53:57;;;;;;;;;;;;;;;6.38;99.68;100805.31;2565617;30;138565;-41
2022/02/15 09:56:25;;;;;;;;;;;;;;;6.45;98.67;100807.09;2568763;30;137097;-41
2022/02/15 09:58:52;;;;;;;;;;;;;;;6.50;98.19;100809.25;2569379;30;137058;-41
2022/02/15 10:01:20;;;;;;;;;;;;;;;6.52;98.01;100804.50;2565472;30;136966;-41
2022/02/15 10:03:59;;;;;;;;;;;;;;;6.57;97.63;100801.19;2568329;30;138357;-41
2022/02/15 10:06:27;;;;;;;;;;;;;;;6.62;96.72;100806.91;2566940;30;137286;-41
2022/02/15 10:08:57;;;;;;;;;;;;;;;6.61;97.07;100805.22;2568393;30;137432;-41
2022/02/15 10:11:33;;;;;;;;;;;;;;;6.62;96.13;100807.75;2569244;30;137662;-41
2022/02/15 10:14:03;;;;;;;;;;;;;;;6.60;96.14;100820.66;2567044;30;138444;-41
2022/02/15 10:16:31;;;;;;;;;;;;;;;6.61;95.59;100825.06;2568491;30;136687;-41
2022/02/15 10:18:59;;;;;;;;;;;;;;;6.64;96.93;100820.28;2568104;30;137450;-41
2022/02/15 10:21:28;;;;;;;;;;;;;;;6.60;94.24;100830.66;2567800;30;137079;-41
2022/02/15 10:23:58;;;;;;;;;;;;;;;6.60;95.27;100826.06;2567551;30;138502;-41
2022/02/15 10:26:28;;;;;;;;;;;;;;;6.66;95.07;100823.66;2568815;30;137128;-41
2022/02/15 10:28:56;;;;;;;;;;;;;;;6.69;93.24;100840.41;2568713;30;138343;-41
2022/02/15 10:31:44;;;;;;;;;;;;;;;6.76;93.94;100841.31;2567463;30;137429;-41
2022/02/15 10:34:16;;;;;;;;;;;;;;;6.88;93.76;100835.41;2567418;30;139719;-41
2022/02/15 10:36:52;;;;;;;;;;;;;;;6.97;93.32;100836.16;2568141;30;137033;-41
2022/02/15 10:39:33;;;;;;;;;;;;;;;7.10;92.02;100843.63;2569679;30;137386;-41
2022/02/15 10:42:05;;;;;;;;;;;;;;;7.22;91.88;100844.00;2568405;30;136781;-41
2022/02/15 10:44:47;;;;;;;;;;;;;;;7.13;90.28;100829.69;2568228;30;139045;-41
2022/02/15 10:47:15;;;;;;;;;;;;;;;7.33;91.26;100847.06;2567841;30;137126;-41
2022/02/15 10:49:43;;;;;;;;;;;;;;;7.33;88.85;100855.19;2568577;30;138391;-41
2022/02/15 10:52:11;;;;;;;;;;;;;;;7.38;88.99;100849.22;2565709;30;137467;-41
2022/02/15 10:54:40;;;;;;;;;;;;;;;7.37;86.45;100860.25;2566933;30;138383;-41
2022/02/15 10:57:13;;;;;;;;;;;;;;;7.33;85.58;100857.91;2568491;30;138178;-41
2022/02/15 10:59:41;;;;;;;;;;;;;;;7.28;85.74;100860.38;2569059;30;138395;-41
2022/02/15 11:02:19;;;;;;;;;;;;;;;7.33;86.04;100859.81;2566630;30;138106;-41
2022/02/15 11:04:48;;;;;;;;;;;;;;;7.38;85.87;100870.94;2568042;30;138850;-41
2022/02/15 11:07:17;;;;;;;;;;;;;;;7.40;86.10;100863.44;2568862;30;136950;-41
2022/02/15 11:10:06;;;;;;;;;;;;;;;7.44;85.78;100859.31;2567757;30;138077;-41
2022/02/15 11:12:45;;;;;;;;;;;;;;;7.40;82.11;100854.44;2566196;30;138378;-41
2022/02/15 11:15:18;;;;;;;;;;;;;;;7.41;83.05;100861.53;2566961;30;139367;-41
2022/02/15 11:17:47;;;;;;;;;;;;;;;7.33;81.13;100851.66;2568037;30;137934;-41
2022/02/15 11:20:16;;;;;;;;;;;;;;;7.18;79.07;100838.94;2565171;30;137166;-41
2022/02/15 11:22:53;;;;;;;;;;;;;;;7.19;80.25;100845.22;2564991;30;137261;-41
2022/02/15 11:25:27;;;;;;;;;;;;;;;7.18;80.75;100838.94;2567443;30;139561;-41
2022/02/15 11:27:55;;;;;;;;;;;;;;;7.11;80.52;100829.88;2565534;30;136988;-41
2022/02/15 11:30:28;;;;;;;;;;;;;;;7.12;81.26;100833.44;2568782;30;138519;-40
2022/02/15 11:33:05;;;;;;;;;;;;;;;7.13;80.73;100835.97;2568511;30;137248;-41
2022/02/15 11:35:34;;;;;;;;;;;;;;;7.18;81.17;100838.94;2568619;30;139145;-41
2022/02/15 11:38:12;;;;;;;;;;;;;;;7.18;81.53;100840.84;2568647;30;137344;-41
2022/02/15 11:40:39;;;;;;;;;;;;;;;7.16;82.58;100842.88;2568300;30;138414;-41
2022/02/15 11:43:10;;;;;;;;;;;;;;;7.12;82.46;100836.16;2568895;30;137251;-41
2022/02/15 11:45:41;;;;;;;;;;;;;;;7.17;82.31;100825.59;2568770;30;138944;-41
2022/02/15 11:48:09;;;;;;;;;;;;;;;7.25;83.01;100820.03;2569750;30;137270;-41
2022/02/15 11:50:47;;;;;;;;;;;;;;;7.37;77.41;100820.38;2568278;30;138203;-41
2022/02/15 11:53:19;;;;;;;;;;;;;;;7.52;77.66;100814.91;2569829;30;137131;-41
2022/02/15 11:55:48;;;;;;;;;;;;;;;7.57;77.90;100814.34;2568457;30;139029;-41
2022/02/15 11:58:16;;;;;;;;;;;;;;;7.68;79.18;100812.97;2568934;30;137913;-41
2022/02/15 12:00:45;;;;;;;;;;;;;;;7.67;75.53;100820.28;2566484;30;138233;-41
2022/02/15 12:03:17;;;;;;;;;;;;;;;7.65;75.94;100802.50;2569985;30;136825;-41
2022/02/15 12:05:46;;;;;;;;;;;;;;;7.64;75.00;100807.09;2569786;30;137987;-41
2022/02/15 12:08:20;;;;;;;;;;;;;;;7.67;77.00;100808.56;2567821;30;137049;-41
2022/02/15 12:10:48;;;;;;;;;;;;;;;7.77;77.27;100809.09;2569104;30;138279;-41
2022/02/15 12:13:19;;;;;;;;;;;;;;;7.72;73.59;100806.13;2568318;30;137186;-42
2022/02/15 12:15:48;;;;;;;;;;;;;;;7.63;73.12;100802.69;2566220;30;139332;-41
2022/02/15 12:18:27;;;;;;;;;;;;;;;7.54;72.08;100801.97;2567767;30;137055;-42
2022/02/15 12:20:56;;;;;;;;;;;;;;;7.41;73.48;100797.25;2570543;30;138256;-41
2022/02/15 12:23:24;;;;;;;;;;;;;;;7.33;72.47;100798.19;2567276;30;137235;-41
2022/02/15 12:26:07;;;;;;;;;;;;;;;7.24;72.57;100793.94;2569030;30;138378;-41
2022/02/15 12:28:35;;;;;;;;;;;;;;;7.33;72.14;100795.50;2565924;30;137153;-41
2022/02/15 12:31:05;;;;;;;;;;;;;;;7.68;71.99;100774.94;2569567;30;138498;-41
2022/02/15 12:33:34;;;;;;;;;;;;;;;8.03;69.61;100769.63;2565879;30;137561;-41
2022/02/15 12:36:04;;;;;;;;;;;;;;;8.32;69.97;100775.91;2567038;30;139284;-41
2022/02/15 12:38:39;;;;;;;;;;;;;;;8.56;69.29;100773.78;2569302;30;137803;-41
2022/02/15 12:41:15;;;;;;;;;;;;;;;8.70;68.50;100764.63;2568444;30;138938;-41
2022/02/15 12:43:43;;;;;;;;;;;;;;;8.89;68.33;100765.78;2568851;30;137299;-41
2022/02/15 12:46:12;;;;;;;;;;;;;;;8.99;65.67;100757.22;2568287;30;138235;-41
2022/02/15 12:48:41;;;;;;;;;;;;;;;9.17;67.09;100767.56;2568514;30;136694;-41
2022/02/15 12:51:09;;;;;;;;;;;;;;;9.19;64.61;100770.91;2567783;30;137050;-41
2022/02/15 12:53:38;;;;;;;;;;;;;;;9.19;65.60;100764.63;2568820;30;137088;-41
2022/02/15 12:56:06;;;;;;;;;;;;;;;9.17;64.07;100764.00;2568991;30;139108;-41